createdAt,value
2019-06-15T00:01:07.622Z,17.15
2019-06-15T00:03:39.402Z,17.19
2019-06-15T00:06:11.245Z,17.19
2019-06-15T00:08:43.705Z,17.11
2019-06-15T00:11:15.471Z,17.13
2019-06-15T00:13:47.266Z,17.14
2019-06-15T00:16:19.025Z,17.07
2019-06-15T00:18:50.804Z,17.11
2019-06-15T00:21:22.585Z,17.11
2019-06-15T00:23:54.360Z,17.08
2019-06-15T00:26:26.127Z,17.07
2019-06-15T00:28:57.912Z,17.02
2019-06-15T00:31:29.688Z,16.97
2019-06-15T00:34:02.737Z,16.97
2019-06-15T00:36:34.521Z,16.96
2019-06-15T00:39:09.013Z,16.96
2019-06-15T00:41:40.867Z,16.98
2019-06-15T00:44:12.642Z,16.95
2019-06-15T00:46:44.427Z,16.94
2019-06-15T00:49:16.206Z,16.83
2019-06-15T00:51:48.045Z,16.82
2019-06-15T00:54:19.830Z,16.88
2019-06-15T00:56:51.914Z,16.87
2019-06-15T00:59:23.684Z,16.69
2019-06-15T01:01:55.476Z,16.67
2019-06-15T01:04:27.374Z,16.60
2019-06-15T01:06:59.122Z,16.62
2019-06-15T01:09:30.912Z,16.72
2019-06-15T01:12:02.699Z,16.84
2019-06-15T01:14:34.471Z,16.87
2019-06-15T01:17:06.251Z,16.86
2019-06-15T01:19:38.025Z,16.80
2019-06-15T01:22:09.818Z,16.88
2019-06-15T01:24:41.591Z,16.91
2019-06-15T01:27:13.363Z,16.98
2019-06-15T01:29:45.138Z,16.99
2019-06-15T01:32:16.921Z,16.91
2019-06-15T01:34:48.698Z,16.77
2019-06-15T01:37:20.471Z,16.65
2019-06-15T01:39:52.252Z,16.55
2019-06-15T01:42:24.028Z,16.39
2019-06-15T01:44:55.813Z,16.34
2019-06-15T01:47:27.592Z,16.30
2019-06-15T01:49:59.400Z,16.24
2019-06-15T01:52:31.166Z,16.06
2019-06-15T01:55:03.125Z,16.07
2019-06-15T01:57:34.980Z,15.99
2019-06-15T02:00:09.082Z,15.91
2019-06-15T02:02:40.921Z,15.84
2019-06-15T02:05:12.761Z,15.82
2019-06-15T02:07:44.543Z,15.85
2019-06-15T02:10:18.398Z,15.91
2019-06-15T02:12:50.645Z,15.87
2019-06-15T02:15:22.488Z,15.80
2019-06-15T02:17:54.276Z,15.81
2019-06-15T02:20:26.059Z,15.81
2019-06-15T02:22:58.151Z,15.78
2019-06-15T02:25:36.259Z,15.65
2019-06-15T02:28:05.938Z,15.52
2019-06-15T02:30:37.781Z,15.63
2019-06-15T02:33:09.573Z,15.61
2019-06-15T02:35:42.141Z,15.52
2019-06-15T02:38:13.937Z,15.53
2019-06-15T02:40:46.682Z,15.46
2019-06-15T02:43:18.529Z,15.41
2019-06-15T02:45:50.304Z,15.39
2019-06-15T02:48:22.103Z,15.36
2019-06-15T02:50:54.248Z,15.32
2019-06-15T02:53:26.102Z,15.31
2019-06-15T02:55:57.880Z,15.30
2019-06-15T02:58:29.674Z,15.29
2019-06-15T03:01:08.842Z,15.23
2019-06-15T03:03:40.689Z,15.19
2019-06-15T03:06:12.456Z,15.21
2019-06-15T03:08:44.378Z,15.21
2019-06-15T03:11:16.242Z,15.16
2019-06-15T03:13:48.570Z,15.13
2019-06-15T03:16:21.425Z,15.12
2019-06-15T03:18:53.208Z,15.07
2019-06-15T03:21:24.984Z,15.09
2019-06-15T03:23:56.766Z,15.10
2019-06-15T03:26:28.536Z,15.08
2019-06-15T03:29:00.325Z,15.04
2019-06-15T03:31:32.181Z,15.01
2019-06-15T03:34:04.028Z,14.97
2019-06-15T03:36:35.806Z,14.96
2019-06-15T03:39:08.234Z,14.94
2019-06-15T03:41:40.009Z,15.00
2019-06-15T03:44:11.792Z,14.91
2019-06-15T03:46:43.609Z,14.95
2019-06-15T03:49:15.375Z,14.97
2019-06-15T03:51:47.241Z,15.07
2019-06-15T03:54:19.028Z,15.12
2019-06-15T03:56:50.798Z,15.12
2019-06-15T03:59:22.581Z,15.15
2019-06-15T04:01:54.378Z,15.22
2019-06-15T04:04:26.162Z,15.15
2019-06-15T04:06:57.938Z,15.08
2019-06-15T04:09:29.798Z,15.01
2019-06-15T04:12:01.585Z,15.07
2019-06-15T04:14:33.362Z,15.00
2019-06-15T04:17:05.134Z,15.05
2019-06-15T04:19:36.985Z,15.13
2019-06-15T04:22:11.354Z,15.17
2019-06-15T04:24:43.152Z,15.24
2019-06-15T04:27:14.927Z,15.33
2019-06-15T04:29:46.706Z,15.37
2019-06-15T04:32:18.484Z,15.31
2019-06-15T04:34:51.971Z,15.32
2019-06-15T04:37:23.740Z,15.34
2019-06-15T04:39:55.532Z,15.35
2019-06-15T04:42:27.327Z,15.39
2019-06-15T04:44:59.115Z,15.49
2019-06-15T04:47:30.957Z,15.62
2019-06-15T04:50:02.820Z,15.73
2019-06-15T04:52:34.922Z,15.74
2019-06-15T04:55:08.316Z,15.99
2019-06-15T04:57:40.095Z,16.21
2019-06-15T05:00:12.332Z,16.48
2019-06-15T05:02:44.102Z,16.62
2019-06-15T05:05:15.882Z,16.74
2019-06-15T05:07:47.671Z,16.90
2019-06-15T05:10:19.729Z,17.05
2019-06-15T05:12:51.499Z,17.21
2019-06-15T05:15:23.289Z,17.36
2019-06-15T05:17:55.065Z,17.34
2019-06-15T05:20:26.865Z,17.35
2019-06-15T05:22:58.659Z,17.29
2019-06-15T05:25:30.409Z,17.28
2019-06-15T05:28:02.248Z,17.23
2019-06-15T05:30:34.039Z,17.22
2019-06-15T05:33:05.949Z,17.23
2019-06-15T05:35:37.736Z,17.17
2019-06-15T05:38:11.122Z,17.16
2019-06-15T05:40:42.912Z,17.09
2019-06-15T05:43:14.686Z,17.03
2019-06-15T05:45:46.473Z,16.91
2019-06-15T05:48:18.386Z,16.95
2019-06-15T05:50:50.203Z,16.86
2019-06-15T05:53:22.038Z,16.70
2019-06-15T05:55:53.911Z,16.79
2019-06-15T05:58:25.696Z,16.97
2019-06-15T06:00:57.479Z,17.02
2019-06-15T06:03:29.255Z,17.10
2019-06-15T06:06:01.122Z,17.31
2019-06-15T06:08:32.917Z,17.41
2019-06-15T06:11:04.774Z,17.56
2019-06-15T06:13:36.547Z,17.71
2019-06-15T06:16:08.333Z,17.89
2019-06-15T06:18:40.110Z,17.78
2019-06-15T06:21:11.898Z,17.84
2019-06-15T06:23:43.668Z,17.83
2019-06-15T06:26:15.474Z,17.80
2019-06-15T06:28:56.812Z,17.88
2019-06-15T06:31:20.732Z,17.71
2019-06-15T06:33:52.510Z,17.75
2019-06-15T06:36:24.287Z,17.69
2019-06-15T06:38:56.063Z,17.67
2019-06-15T06:41:28.149Z,17.65
2019-06-15T06:43:59.936Z,17.59
2019-06-15T06:46:31.718Z,17.50
2019-06-15T06:49:03.504Z,17.44
2019-06-15T06:51:35.284Z,17.39
2019-06-15T06:54:07.057Z,17.26
2019-06-15T06:56:39.882Z,17.29
2019-06-15T06:59:11.723Z,17.15
2019-06-15T07:01:43.515Z,17.30
2019-06-15T07:04:15.275Z,17.47
2019-06-15T07:06:47.062Z,17.56
2019-06-15T07:09:19.098Z,17.84
2019-06-15T07:11:50.894Z,18.01
2019-06-15T07:14:22.740Z,18.17
2019-06-15T07:16:54.522Z,18.50
2019-06-15T07:19:26.301Z,18.46
2019-06-15T07:21:58.088Z,18.65
2019-06-15T07:24:29.855Z,18.78
2019-06-15T07:27:01.638Z,18.86
2019-06-15T07:29:33.399Z,18.96
2019-06-15T07:32:05.251Z,18.99
2019-06-15T07:34:37.060Z,19.19
2019-06-15T07:37:08.913Z,19.26
2019-06-15T07:39:40.848Z,19.32
2019-06-15T07:42:12.603Z,19.33
2019-06-15T07:44:44.379Z,19.36
2019-06-15T07:47:16.194Z,19.25
2019-06-15T07:49:47.958Z,19.20
2019-06-15T07:52:19.733Z,19.27
2019-06-15T07:54:52.268Z,19.51
2019-06-15T07:57:24.048Z,19.90
2019-06-15T07:59:56.785Z,19.80
2019-06-15T08:02:28.561Z,19.55
2019-06-15T08:05:00.325Z,19.32
2019-06-15T08:07:32.098Z,19.41
2019-06-15T08:10:07.716Z,19.49
2019-06-15T08:12:39.490Z,19.64
2019-06-15T08:15:12.134Z,19.81
2019-06-15T08:17:45.599Z,20.01
2019-06-15T08:20:23.237Z,19.78
2019-06-15T08:22:55.019Z,19.69
2019-06-15T08:25:26.789Z,19.65
2019-06-15T08:27:58.662Z,19.67
2019-06-15T08:30:35.119Z,19.51
2019-06-15T08:33:06.896Z,19.54
2019-06-15T08:35:38.658Z,19.93
2019-06-15T08:38:11.570Z,20.27
2019-06-15T08:40:43.489Z,20.35
2019-06-15T08:43:15.260Z,20.28
2019-06-15T08:45:47.027Z,20.26
2019-06-15T08:48:18.806Z,20.35
2019-06-15T08:50:50.566Z,20.25
2019-06-15T08:53:22.342Z,20.54
2019-06-15T08:55:54.116Z,20.32
2019-06-15T08:58:25.895Z,20.25
2019-06-15T09:00:57.738Z,20.47
2019-06-15T09:03:29.512Z,20.75
2019-06-15T09:06:01.284Z,21.06
2019-06-15T09:08:33.112Z,20.95
2019-06-15T09:11:04.887Z,20.33
2019-06-15T09:13:36.671Z,20.28
2019-06-15T09:16:08.428Z,20.33
2019-06-15T09:18:40.277Z,20.21
2019-06-15T09:21:12.047Z,20.30
2019-06-15T09:23:43.821Z,20.28
2019-06-15T09:26:15.591Z,20.24
2019-06-15T09:28:47.371Z,20.23
2019-06-15T09:31:19.133Z,20.36
2019-06-15T09:33:50.905Z,20.40
2019-06-15T09:36:22.675Z,20.06
2019-06-15T09:38:54.452Z,20.14
2019-06-15T09:41:26.216Z,20.08
2019-06-15T09:43:57.991Z,20.35
2019-06-15T09:46:29.775Z,20.56
2019-06-15T09:49:02.528Z,20.44
2019-06-15T09:51:34.293Z,20.43
2019-06-15T09:54:06.141Z,20.27
2019-06-15T09:56:37.907Z,20.52
2019-06-15T09:59:09.681Z,20.37
2019-06-15T10:01:42.513Z,20.68
2019-06-15T10:04:14.309Z,20.75
2019-06-15T10:06:46.057Z,20.73
2019-06-15T10:09:17.843Z,20.70
2019-06-15T10:11:50.241Z,20.23
2019-06-15T10:14:22.042Z,20.27
2019-06-15T10:16:53.810Z,20.42
2019-06-15T10:19:25.608Z,20.57
2019-06-15T10:21:57.390Z,20.56
2019-06-15T10:24:29.205Z,20.37
2019-06-15T10:27:00.982Z,20.35
2019-06-15T10:29:41.624Z,20.48
2019-06-15T10:32:06.230Z,20.61
2019-06-15T10:34:38.033Z,20.53
2019-06-15T10:37:11.014Z,20.55
2019-06-15T10:39:43.265Z,20.74
2019-06-15T10:42:15.032Z,20.73
2019-06-15T10:44:47.091Z,20.81
2019-06-15T10:47:18.861Z,21.11
2019-06-15T10:49:50.639Z,21.27
2019-06-15T10:52:22.412Z,21.06
2019-06-15T10:54:54.191Z,21.42
2019-06-15T10:57:25.964Z,21.47
2019-06-15T10:59:57.950Z,21.77
2019-06-15T11:02:29.888Z,21.48
2019-06-15T11:05:01.736Z,21.27
2019-06-15T11:07:34.642Z,20.93
2019-06-15T11:10:09.966Z,20.78
2019-06-15T11:12:46.323Z,20.90
2019-06-15T11:15:16.261Z,20.97
2019-06-15T11:17:48.226Z,20.93
2019-06-15T11:20:20.072Z,20.83
2019-06-15T11:22:51.832Z,20.75
2019-06-15T11:25:23.608Z,20.86
2019-06-15T11:27:55.375Z,20.65
2019-06-15T11:30:27.159Z,20.79
2019-06-15T11:32:58.936Z,20.72
2019-06-15T11:35:30.721Z,20.70
2019-06-15T11:38:03.537Z,20.90
2019-06-15T11:40:35.318Z,21.05
2019-06-15T11:43:07.077Z,21.26
2019-06-15T11:45:38.859Z,21.53
2019-06-15T11:48:10.917Z,22.07
2019-06-15T11:50:42.731Z,21.82
2019-06-15T11:53:14.496Z,21.81
2019-06-15T11:55:46.272Z,21.90
2019-06-15T11:58:18.037Z,21.67
2019-06-15T12:00:49.891Z,21.37
2019-06-15T12:03:21.665Z,21.78
2019-06-15T12:05:53.446Z,21.84
2019-06-15T12:08:25.238Z,21.81
2019-06-15T12:10:56.983Z,21.63
2019-06-15T12:13:28.752Z,21.30
2019-06-15T12:16:00.825Z,21.31
2019-06-15T12:18:32.586Z,21.22
2019-06-15T12:21:04.382Z,21.46
2019-06-15T12:23:36.147Z,21.89
2019-06-15T12:26:07.926Z,21.64
2019-06-15T12:28:39.765Z,21.82
2019-06-15T12:31:13.020Z,21.70
2019-06-15T12:33:44.795Z,21.10
2019-06-15T12:36:19.531Z,21.55
2019-06-15T12:38:50.121Z,21.81
2019-06-15T12:41:21.911Z,21.70
2019-06-15T12:43:53.668Z,21.41
2019-06-15T12:46:26.520Z,21.34
2019-06-15T12:48:58.289Z,21.45
2019-06-15T12:51:30.095Z,21.09
2019-06-15T12:54:01.984Z,21.22
2019-06-15T12:56:33.765Z,21.15
2019-06-15T12:59:05.603Z,21.42
2019-06-15T13:01:37.438Z,21.46
2019-06-15T13:04:09.199Z,21.79
2019-06-15T13:06:40.973Z,21.96
2019-06-15T13:09:12.743Z,21.93
2019-06-15T13:11:44.514Z,21.96
2019-06-15T13:14:16.287Z,21.95
2019-06-15T13:16:48.247Z,21.88
2019-06-15T13:19:20.105Z,21.98
2019-06-15T13:21:51.878Z,21.89
2019-06-15T13:24:23.640Z,21.87
2019-06-15T13:26:55.435Z,21.77
2019-06-15T13:29:27.195Z,21.77
2019-06-15T13:31:58.975Z,21.81
2019-06-15T13:34:30.740Z,21.86
2019-06-15T13:37:02.515Z,21.93
2019-06-15T13:39:34.295Z,21.58
2019-06-15T13:42:06.108Z,21.86
2019-06-15T13:44:37.842Z,22.10
2019-06-15T13:47:09.960Z,22.44
2019-06-15T13:49:41.723Z,22.54
2019-06-15T13:52:13.500Z,22.49
2019-06-15T13:54:45.269Z,22.63
2019-06-15T13:57:17.123Z,22.44
2019-06-15T13:59:48.897Z,22.05
2019-06-15T14:02:20.667Z,22.30
2019-06-15T14:04:53.575Z,21.91
2019-06-15T14:07:25.361Z,22.22
2019-06-15T14:09:57.130Z,22.14
2019-06-15T14:12:28.914Z,22.06
2019-06-15T14:15:01.747Z,22.13
2019-06-15T14:17:33.612Z,22.21
2019-06-15T14:20:07.023Z,22.51
2019-06-15T14:22:38.796Z,22.37
2019-06-15T14:25:11.552Z,22.39
2019-06-15T14:27:43.333Z,22.56
2019-06-15T14:30:15.539Z,22.18
2019-06-15T14:32:47.287Z,22.62
2019-06-15T14:35:19.125Z,22.93
2019-06-15T14:37:50.905Z,22.72
2019-06-15T14:40:22.668Z,22.57
2019-06-15T14:42:54.447Z,22.48
2019-06-15T14:45:26.479Z,22.42
2019-06-15T14:47:58.257Z,22.35
2019-06-15T14:50:30.024Z,22.55
2019-06-15T14:53:01.819Z,22.60
2019-06-15T14:55:36.658Z,22.96
2019-06-15T14:58:08.591Z,22.99
2019-06-15T15:00:40.352Z,22.34
2019-06-15T15:03:12.129Z,22.55
2019-06-15T15:05:43.911Z,22.48
2019-06-15T15:08:15.815Z,22.70
2019-06-15T15:10:47.578Z,22.58
2019-06-15T15:13:19.355Z,22.14
2019-06-15T15:15:53.126Z,22.44
2019-06-15T15:18:27.059Z,22.41
2019-06-15T15:20:58.616Z,22.39
2019-06-15T15:23:30.389Z,22.30
2019-06-15T15:26:02.174Z,22.30
2019-06-15T15:28:36.355Z,22.44
2019-06-15T15:31:07.410Z,22.13
2019-06-15T15:33:40.834Z,22.45
2019-06-15T15:36:12.611Z,22.68
2019-06-15T15:38:46.648Z,22.71
2019-06-15T15:41:17.856Z,22.48
2019-06-15T15:43:49.626Z,22.02
2019-06-15T15:46:21.405Z,22.15
2019-06-15T15:48:53.168Z,22.34
2019-06-15T15:51:26.174Z,22.28
2019-06-15T15:53:58.085Z,21.90
2019-06-15T15:56:29.851Z,21.94
2019-06-15T15:59:01.922Z,21.93
2019-06-15T16:01:33.961Z,21.81
2019-06-15T16:04:06.708Z,21.64
2019-06-15T16:06:39.445Z,21.61
2019-06-15T16:09:11.230Z,21.63
2019-06-15T16:11:43.016Z,21.59
2019-06-15T16:14:16.434Z,21.73
2019-06-15T16:16:48.468Z,21.64
2019-06-15T16:19:20.252Z,21.59
2019-06-15T16:21:52.018Z,21.45
2019-06-15T16:24:23.792Z,21.33
2019-06-15T16:26:56.643Z,21.26
2019-06-15T16:29:28.530Z,21.23
2019-06-15T16:32:00.305Z,21.04
2019-06-15T16:34:32.078Z,20.86
2019-06-15T16:37:06.409Z,20.79
2019-06-15T16:39:37.359Z,20.91
2019-06-15T16:42:09.121Z,21.13
2019-06-15T16:44:40.902Z,21.06
2019-06-15T16:47:12.662Z,21.22
2019-06-15T16:49:46.397Z,21.05
2019-06-15T16:52:18.040Z,21.01
2019-06-15T16:54:49.882Z,20.92
2019-06-15T16:57:21.661Z,20.85
2019-06-15T16:59:55.978Z,21.08
2019-06-15T17:02:26.873Z,21.08
2019-06-15T17:04:58.648Z,21.31
2019-06-15T17:07:30.671Z,21.26
2019-06-15T17:10:02.473Z,21.28
2019-06-15T17:12:37.023Z,21.47
2019-06-15T17:15:08.085Z,21.48
2019-06-15T17:17:40.018Z,21.37
2019-06-15T17:20:11.978Z,21.28
2019-06-15T17:22:43.740Z,21.51
2019-06-15T17:25:16.608Z,21.57
2019-06-15T17:27:48.651Z,21.77
2019-06-15T17:30:20.583Z,21.90
2019-06-15T17:32:52.333Z,21.96
2019-06-15T17:35:24.108Z,21.94
2019-06-15T17:37:56.435Z,21.86
2019-06-15T17:40:28.250Z,21.84
2019-06-15T17:43:00.094Z,21.93
2019-06-15T17:45:31.861Z,22.05
2019-06-15T17:48:06.333Z,21.91
2019-06-15T17:50:44.021Z,21.99
2019-06-15T17:53:16.980Z,22.13
2019-06-15T17:55:48.963Z,22.18
2019-06-15T17:58:20.724Z,22.15
2019-06-15T18:00:52.501Z,22.17
2019-06-15T18:03:26.076Z,22.39
2019-06-15T18:05:58.247Z,22.54
2019-06-15T18:08:30.194Z,22.69
2019-06-15T18:11:01.973Z,22.60
2019-06-15T18:13:33.786Z,22.48
2019-06-15T18:16:06.702Z,22.27
2019-06-15T18:18:38.634Z,22.31
2019-06-15T18:21:11.226Z,22.26
2019-06-15T18:23:43.033Z,22.14
2019-06-15T18:26:16.219Z,22.19
2019-06-15T18:28:48.255Z,22.26
2019-06-15T18:31:20.033Z,22.18
2019-06-15T18:34:06.457Z,21.98
2019-06-15T18:36:26.698Z,22.08
2019-06-15T18:38:58.594Z,22.12
2019-06-15T18:41:31.351Z,22.13
2019-06-15T18:44:03.123Z,22.05
2019-06-15T18:46:36.747Z,21.88
2019-06-15T18:49:08.563Z,21.75
2019-06-15T18:51:40.324Z,21.60
2019-06-15T18:54:12.088Z,21.54
2019-06-15T18:56:45.990Z,21.48
2019-06-15T18:59:17.330Z,21.38
2019-06-15T19:01:49.104Z,21.31
2019-06-15T19:04:27.220Z,21.19
2019-06-15T19:06:56.144Z,21.05
2019-06-15T19:09:28.793Z,20.98
2019-06-15T19:12:00.562Z,20.86
2019-06-15T19:14:32.341Z,20.68
2019-06-15T19:17:06.075Z,20.59
2019-06-15T19:19:38.550Z,20.54
2019-06-15T19:22:10.953Z,20.51
2019-06-15T19:24:42.717Z,20.45
2019-06-15T19:27:16.117Z,20.35
2019-06-15T19:29:48.040Z,20.32
2019-06-15T19:32:19.821Z,20.26
2019-06-15T19:34:51.663Z,20.16
2019-06-15T19:37:25.955Z,19.84
2019-06-15T19:39:56.900Z,19.62
2019-06-15T19:42:28.667Z,19.39
2019-06-15T19:45:00.439Z,19.27
2019-06-15T19:47:32.224Z,19.06
2019-06-15T19:50:06.566Z,18.96
2019-06-15T19:52:38.431Z,18.89
2019-06-15T19:55:11.377Z,18.76
2019-06-15T19:57:43.162Z,18.63
2019-06-15T20:00:17.084Z,18.55
2019-06-15T20:02:49.156Z,18.46
2019-06-15T20:05:21.891Z,18.47
2019-06-15T20:07:53.674Z,18.46
2019-06-15T20:10:26.599Z,18.31
2019-06-15T20:12:58.545Z,18.22
2019-06-15T20:15:30.316Z,18.18
2019-06-15T20:18:02.110Z,18.24
2019-06-15T20:20:36.332Z,18.25
2019-06-15T20:23:07.566Z,18.12
2019-06-15T20:25:39.418Z,17.93
2019-06-15T20:28:11.226Z,17.79
2019-06-15T20:30:43.011Z,17.75
2019-06-15T20:33:16.665Z,17.62
2019-06-15T20:35:48.281Z,17.50
2019-06-15T20:38:20.059Z,17.42
2019-06-15T20:40:51.833Z,17.31
2019-06-15T20:43:23.778Z,17.18
2019-06-15T20:45:56.203Z,17.15
2019-06-15T20:48:28.262Z,17.01
2019-06-15T20:51:00.043Z,16.99
2019-06-15T20:53:32.002Z,16.96
2019-06-15T20:56:06.447Z,16.97
2019-06-15T20:58:37.560Z,16.98
2019-06-15T21:01:09.388Z,16.93
2019-06-15T21:03:43.166Z,16.98
2019-06-15T21:06:16.871Z,16.99
2019-06-15T21:08:49.214Z,16.83
2019-06-15T21:11:21.011Z,16.66
2019-06-15T21:13:52.801Z,16.58
2019-06-15T21:16:26.250Z,16.56
2019-06-15T21:18:58.151Z,16.51
2019-06-15T21:21:29.945Z,16.32
2019-06-15T21:24:01.792Z,16.31
2019-06-15T21:26:33.664Z,16.41
2019-06-15T21:29:06.680Z,16.32
2019-06-15T21:31:38.607Z,16.23
2019-06-15T21:34:10.876Z,16.33
2019-06-15T21:36:42.678Z,16.37
2019-06-15T21:39:15.413Z,16.45
2019-06-15T21:41:47.181Z,16.58
2019-06-15T21:44:18.977Z,16.58
2019-06-15T21:46:50.761Z,16.57
2019-06-15T21:49:22.543Z,16.57
2019-06-15T21:51:56.444Z,16.63
2019-06-15T21:54:27.825Z,16.64
2019-06-15T21:56:59.599Z,16.64
2019-06-15T21:59:31.389Z,16.65
2019-06-15T22:02:03.166Z,16.65
2019-06-15T22:04:36.846Z,16.61
2019-06-15T22:07:08.408Z,16.63
2019-06-15T22:09:40.190Z,16.66
2019-06-15T22:12:11.969Z,16.69
2019-06-15T22:14:43.745Z,16.73
2019-06-15T22:17:16.847Z,16.74
2019-06-15T22:19:48.768Z,16.74
2019-06-15T22:22:20.544Z,16.76
2019-06-15T22:24:52.329Z,16.77
2019-06-15T22:27:24.108Z,16.77
2019-06-15T22:29:56.513Z,16.77
2019-06-15T22:32:28.448Z,16.76
2019-06-15T22:35:00.698Z,16.68
2019-06-15T22:37:32.476Z,16.66
2019-06-15T22:40:08.667Z,16.69
2019-06-15T22:42:40.444Z,16.71
2019-06-15T22:45:12.455Z,16.72
2019-06-15T22:47:46.629Z,16.72
2019-06-15T22:50:17.850Z,16.65
2019-06-15T22:52:49.630Z,16.71
2019-06-15T22:55:21.482Z,16.63
2019-06-15T22:57:53.265Z,16.68
2019-06-15T23:00:26.564Z,16.70
2019-06-15T23:02:58.401Z,16.56
2019-06-15T23:05:30.185Z,16.60
2019-06-15T23:08:01.959Z,16.60
2019-06-15T23:10:36.260Z,16.57
2019-06-15T23:13:07.228Z,16.58
2019-06-15T23:15:39.022Z,16.62
2019-06-15T23:18:10.830Z,16.64
2019-06-15T23:20:43.083Z,16.61
2019-06-15T23:23:16.171Z,16.63
2019-06-15T23:25:48.220Z,16.65
2019-06-15T23:28:20.981Z,16.52
2019-06-15T23:30:52.768Z,16.38
2019-06-15T23:33:26.622Z,16.31
2019-06-15T23:36:02.586Z,16.20
2019-06-15T23:38:34.358Z,15.99
2019-06-15T23:41:06.947Z,15.94
2019-06-15T23:43:38.891Z,15.78
2019-06-15T23:46:11.323Z,15.75
2019-06-15T23:48:43.115Z,15.57
2019-06-15T23:51:16.998Z,15.57
2019-06-15T23:53:49.165Z,15.56
2019-06-15T23:56:20.948Z,15.59
2019-06-15T23:58:52.724Z,15.48
